Portada
METAR-TAF:

METAR-TAF

Aeropuertos :

Cúcuta, Colombia

Aeropuerto Internacional Camilo Daza

latitud: 07-56N, longitud: 072-31W, altitud: 250 m

Observación

El informe se hizo hace 38 minutos, a las 23:00 UTC
Viento 12 kt del sur
Temperatura 30°C
Humedad 52%
Presión 1007 hPa
Visibilidad 10 km o más
Nubes dispersas a una altura de 1800 ft
Nubes dispersas a una altura de 8000 ft

METAR: SKCC 202300Z 19012KT 9999 SCT018 SCT080 30/19 A2975 RMK LTNG/NE

Hora: 18:38 (23:38 UTC)

Pronóstico

El informe se hizo hace 6 horas y 38 minutos, a las 17:00 UTC
Pronóstico válido del 20 a las 18 UTC al 21 a las 18 UTC
Viento 12 kt del sur
Visibilidad 10 km o más
Escasas nubes a una altura de 2300 ft
Nubes dispersas a una altura de 9000 ft

TAF: SKCC 201700Z 2018/2118 18012KT 9999 FEW023 SCT090 TX35/2018Z TN25/2111Z

Observaciones y pronósticos meteorológicos de más de 4000 aeropuertos (mensajes METAR y TAF).

Los puntos amarillos y rojos representan las estaciones disponibles.

Ponga el ratón en el punto deseado para ver el nombre de la estación.

Haga clic para ver las observaciones y los pronósticos meteorológicos.

Para cambiar el mapa : haga clic en los botones verdes con una cruz de color negro para hacer un zoom, en el botón verde con un guión para alejar o en las flechas verdes para mapas adyacentes.


METAR-TAF: